sensor_id;sensor_type;location;lat;lon;timestamp;temperature;humidity
52058;DHT22;38063;53.210;6.504;2022-12-18T00:02:16;-3.70;99.90
52058;DHT22;38063;53.210;6.504;2022-12-18T00:04:41;-3.70;99.90
52058;DHT22;38063;53.210;6.504;2022-12-18T00:07:07;-3.80;99.90
52058;DHT22;38063;53.210;6.504;2022-12-18T00:09:33;-3.80;99.90
52058;DHT22;38063;53.210;6.504;2022-12-18T00:11:58;-3.80;99.90
52058;DHT22;38063;53.210;6.504;2022-12-18T00:14:24;-3.80;99.90
52058;DHT22;38063;53.210;6.504;2022-12-18T00:16:49;-3.80;99.90
52058;DHT22;38063;53.210;6.504;2022-12-18T00:19:15;-3.80;99.90
52058;DHT22;38063;53.210;6.504;2022-12-18T00:21:42;-3.80;99.90
52058;DHT22;38063;53.210;6.504;2022-12-18T00:24:08;-3.80;99.90
52058;DHT22;38063;53.210;6.504;2022-12-18T00:26:36;-3.80;99.90
52058;DHT22;38063;53.210;6.504;2022-12-18T00:29:09;-3.80;99.90
52058;DHT22;38063;53.210;6.504;2022-12-18T00:31:35;-3.80;99.90
52058;DHT22;38063;53.210;6.504;2022-12-18T00:34:02;-3.70;99.90
52058;DHT22;38063;53.210;6.504;2022-12-18T00:36:33;-3.80;99.90
52058;DHT22;38063;53.210;6.504;2022-12-18T00:39:03;-3.80;99.90
52058;DHT22;38063;53.210;6.504;2022-12-18T00:41:29;-3.80;99.90
52058;DHT22;38063;53.210;6.504;2022-12-18T00:44:16;-3.80;99.90
52058;DHT22;38063;53.210;6.504;2022-12-18T00:46:43;-3.80;99.90
52058;DHT22;38063;53.210;6.504;2022-12-18T00:49:12;-3.80;99.90
52058;DHT22;38063;53.210;6.504;2022-12-18T00:51:38;-3.80;99.90
52058;DHT22;38063;53.210;6.504;2022-12-18T00:54:04;-3.80;99.90
52058;DHT22;38063;53.210;6.504;2022-12-18T00:56:30;-3.80;99.90
52058;DHT22;38063;53.210;6.504;2022-12-18T00:58:56;-3.80;99.90
52058;DHT22;38063;53.210;6.504;2022-12-18T01:01:22;-3.90;99.90
52058;DHT22;38063;53.210;6.504;2022-12-18T01:03:48;-3.90;99.90
52058;DHT22;38063;53.210;6.504;2022-12-18T01:06:15;-3.90;99.90
52058;DHT22;38063;53.210;6.504;2022-12-18T01:08:40;-3.90;99.90
52058;DHT22;38063;53.210;6.504;2022-12-18T01:11:11;-3.90;99.90
52058;DHT22;38063;53.210;6.504;2022-12-18T01:13:37;-3.90;99.90
52058;DHT22;38063;53.210;6.504;2022-12-18T01:16:03;-3.90;99.90
52058;DHT22;38063;53.210;6.504;2022-12-18T01:18:29;-4.00;99.90
52058;DHT22;38063;53.210;6.504;2022-12-18T01:20:54;-4.00;99.90
52058;DHT22;38063;53.210;6.504;2022-12-18T01:23:20;-4.00;99.90
52058;DHT22;38063;53.210;6.504;2022-12-18T01:25:45;-4.00;99.90
52058;DHT22;38063;53.210;6.504;2022-12-18T01:28:11;-4.00;99.90
52058;DHT22;38063;53.210;6.504;2022-12-18T01:30:37;-4.00;99.90
52058;DHT22;38063;53.210;6.504;2022-12-18T01:33:04;-4.00;99.90
52058;DHT22;38063;53.210;6.504;2022-12-18T01:35:30;-4.00;99.90
52058;DHT22;38063;53.210;6.504;2022-12-18T01:37:56;-4.10;99.90
52058;DHT22;38063;53.210;6.504;2022-12-18T01:40:21;-4.10;99.90
52058;DHT22;38063;53.210;6.504;2022-12-18T01:42:53;-4.20;99.90
52058;DHT22;38063;53.210;6.504;2022-12-18T01:45:24;-4.20;99.90
52058;DHT22;38063;53.210;6.504;2022-12-18T01:48:05;-4.30;99.90
52058;DHT22;38063;53.210;6.504;2022-12-18T01:50:36;-4.40;99.90
52058;DHT22;38063;53.210;6.504;2022-12-18T01:55:35;-4.40;99.90
52058;DHT22;38063;53.210;6.504;2022-12-18T01:58:03;-4.50;99.90
52058;DHT22;38063;53.210;6.504;2022-12-18T02:00:29;-4.50;99.90
52058;DHT22;38063;53.210;6.504;2022-12-18T02:02:55;-4.60;99.90
52058;DHT22;38063;53.210;6.504;2022-12-18T02:05:44;-4.60;99.90
52058;DHT22;38063;53.210;6.504;2022-12-18T02:08:31;-4.60;99.90
52058;DHT22;38063;53.210;6.504;2022-12-18T02:14:00;-4.70;99.90
52058;DHT22;38063;53.210;6.504;2022-12-18T02:22:14;-4.80;99.90
52058;DHT22;38063;53.210;6.504;2022-12-18T02:24:47;-4.80;99.90
52058;DHT22;38063;53.210;6.504;2022-12-18T02:27:17;-4.80;99.90
52058;DHT22;38063;53.210;6.504;2022-12-18T02:29:49;-4.90;99.90
52058;DHT22;38063;53.210;6.504;2022-12-18T02:32:22;-4.90;99.90
52058;DHT22;38063;53.210;6.504;2022-12-18T02:34:51;-4.90;99.90
52058;DHT22;38063;53.210;6.504;2022-12-18T02:37:19;-5.00;99.90
52058;DHT22;38063;53.210;6.504;2022-12-18T02:39:48;-5.00;99.90
52058;DHT22;38063;53.210;6.504;2022-12-18T02:42:14;-5.00;99.90
52058;DHT22;38063;53.210;6.504;2022-12-18T02:44:48;-5.00;99.90
52058;DHT22;38063;53.210;6.504;2022-12-18T02:47:16;-5.00;99.90
52058;DHT22;38063;53.210;6.504;2022-12-18T02:49:46;-5.10;99.90
52058;DHT22;38063;53.210;6.504;2022-12-18T02:52:32;-5.10;99.90
52058;DHT22;38063;53.210;6.504;2022-12-18T02:57:44;-5.20;99.90
52058;DHT22;38063;53.210;6.504;2022-12-18T03:00:18;-5.20;99.90
52058;DHT22;38063;53.210;6.504;2022-12-18T03:02:54;-5.20;99.90
52058;DHT22;38063;53.210;6.504;2022-12-18T03:05:38;-5.30;99.90
52058;DHT22;38063;53.210;6.504;2022-12-18T03:08:24;-5.30;99.90
52058;DHT22;38063;53.210;6.504;2022-12-18T03:11:16;-5.30;99.90
52058;DHT22;38063;53.210;6.504;2022-12-18T03:14:03;-5.30;99.90
52058;DHT22;38063;53.210;6.504;2022-12-18T03:16:31;-4.30;99.90
52058;DHT22;38063;53.210;6.504;2022-12-18T03:19:14;-5.30;99.90
52058;DHT22;38063;53.210;6.504;2022-12-18T03:21:45;-5.30;99.90
52058;DHT22;38063;53.210;6.504;2022-12-18T03:24:11;-5.30;99.90
52058;DHT22;38063;53.210;6.504;2022-12-18T03:26:40;-5.30;99.90
52058;DHT22;38063;53.210;6.504;2022-12-18T03:29:17;-5.30;99.90
52058;DHT22;38063;53.210;6.504;2022-12-18T03:31:49;-5.30;99.90
52058;DHT22;38063;53.210;6.504;2022-12-18T03:34:21;-4.60;99.90
52058;DHT22;38063;53.210;6.504;2022-12-18T03:36:48;-4.10;99.90
52058;DHT22;38063;53.210;6.504;2022-12-18T03:39:14;-5.40;99.90
52058;DHT22;38063;53.210;6.504;2022-12-18T03:41:45;-5.40;99.90
52058;DHT22;38063;53.210;6.504;2022-12-18T03:44:36;-5.40;99.90
52058;DHT22;38063;53.210;6.504;2022-12-18T03:52:54;-5.40;99.90
52058;DHT22;38063;53.210;6.504;2022-12-18T03:55:23;-5.50;99.90
52058;DHT22;38063;53.210;6.504;2022-12-18T03:57:51;-5.50;99.90
52058;DHT22;38063;53.210;6.504;2022-12-18T04:00:19;-5.50;99.90
52058;DHT22;38063;53.210;6.504;2022-12-18T04:02:49;-5.50;99.90
52058;DHT22;38063;53.210;6.504;2022-12-18T04:05:17;-5.50;99.90
52058;DHT22;38063;53.210;6.504;2022-12-18T04:07:45;-4.60;99.90
52058;DHT22;38063;53.210;6.504;2022-12-18T04:10:12;-5.50;99.90
52058;DHT22;38063;53.210;6.504;2022-12-18T04:12:38;-5.50;99.90
52058;DHT22;38063;53.210;6.504;2022-12-18T04:15:05;-5.50;99.90
52058;DHT22;38063;53.210;6.504;2022-12-18T04:17:31;-5.60;99.90
52058;DHT22;38063;53.210;6.504;2022-12-18T04:19:57;-5.60;99.90
52058;DHT22;38063;53.210;6.504;2022-12-18T04:22:22;-5.60;99.90
52058;DHT22;38063;53.210;6.504;2022-12-18T04:24:48;-5.60;99.90
52058;DHT22;38063;53.210;6.504;2022-12-18T04:27:13;-5.60;99.90
52058;DHT22;38063;53.210;6.504;2022-12-18T04:29:39;-5.70;99.90
52058;DHT22;38063;53.210;6.504;2022-12-18T04:32:05;-5.70;99.90
52058;DHT22;38063;53.210;6.504;2022-12-18T04:34:30;-5.70;99.90
52058;DHT22;38063;53.210;6.504;2022-12-18T04:36:56;-5.70;99.90
52058;DHT22;38063;53.210;6.504;2022-12-18T04:39:22;-5.70;99.90
52058;DHT22;38063;53.210;6.504;2022-12-18T04:41:47;-5.70;99.90
52058;DHT22;38063;53.210;6.504;2022-12-18T04:44:13;-5.70;99.90
52058;DHT22;38063;53.210;6.504;2022-12-18T04:46:39;-5.70;99.90
52058;DHT22;38063;53.210;6.504;2022-12-18T04:49:04;-5.80;99.90
52058;DHT22;38063;53.210;6.504;2022-12-18T04:51:30;-5.70;99.90
52058;DHT22;38063;53.210;6.504;2022-12-18T04:53:56;-5.80;99.90
52058;DHT22;38063;53.210;6.504;2022-12-18T04:56:21;-5.80;99.90
52058;DHT22;38063;53.210;6.504;2022-12-18T04:58:47;-5.80;99.90
52058;DHT22;38063;53.210;6.504;2022-12-18T05:01:15;-5.90;99.90
52058;DHT22;38063;53.210;6.504;2022-12-18T05:03:41;-5.80;99.90
52058;DHT22;38063;53.210;6.504;2022-12-18T05:06:07;-5.90;99.90
52058;DHT22;38063;53.210;6.504;2022-12-18T05:08:33;-5.90;99.90
52058;DHT22;38063;53.210;6.504;2022-12-18T05:11:10;-5.90;99.90
52058;DHT22;38063;53.210;6.504;2022-12-18T05:13:37;-5.90;99.90
52058;DHT22;38063;53.210;6.504;2022-12-18T05:16:04;-5.90;99.90
52058;DHT22;38063;53.210;6.504;2022-12-18T05:18:31;-5.90;99.90
52058;DHT22;38063;53.210;6.504;2022-12-18T05:20:57;-5.90;99.90
52058;DHT22;38063;53.210;6.504;2022-12-18T05:23:23;-5.90;99.90
52058;DHT22;38063;53.210;6.504;2022-12-18T05:25:58;-5.90;99.90
52058;DHT22;38063;53.210;6.504;2022-12-18T05:28:25;-5.90;99.90
52058;DHT22;38063;53.210;6.504;2022-12-18T05:30:53;-6.00;99.90
52058;DHT22;38063;53.210;6.504;2022-12-18T05:33:21;-6.00;99.90
52058;DHT22;38063;53.210;6.504;2022-12-18T05:35:59;-6.00;99.90
52058;DHT22;38063;53.210;6.504;2022-12-18T05:38:26;-6.00;99.90
52058;DHT22;38063;53.210;6.504;2022-12-18T05:40:53;-6.00;99.90
52058;DHT22;38063;53.210;6.504;2022-12-18T05:43:20;-6.10;99.90
52058;DHT22;38063;53.210;6.504;2022-12-18T05:45:47;-6.10;99.90
52058;DHT22;38063;53.210;6.504;2022-12-18T05:48:12;-6.10;99.90
52058;DHT22;38063;53.210;6.504;2022-12-18T05:50:40;-6.10;99.90
52058;DHT22;38063;53.210;6.504;2022-12-18T05:53:06;-6.10;99.90
52058;DHT22;38063;53.210;6.504;2022-12-18T05:55:36;-6.10;99.90
52058;DHT22;38063;53.210;6.504;2022-12-18T05:58:03;-6.20;99.90
52058;DHT22;38063;53.210;6.504;2022-12-18T06:00:30;-6.20;99.90
52058;DHT22;38063;53.210;6.504;2022-12-18T06:02:55;-6.20;99.90
52058;DHT22;38063;53.210;6.504;2022-12-18T06:05:21;-6.20;99.90
52058;DHT22;38063;53.210;6.504;2022-12-18T06:07:47;-6.20;99.90
52058;DHT22;38063;53.210;6.504;2022-12-18T06:10:12;-6.20;99.90
52058;DHT22;38063;53.210;6.504;2022-12-18T06:12:38;-6.20;99.90
52058;DHT22;38063;53.210;6.504;2022-12-18T06:15:04;-6.20;99.90
52058;DHT22;38063;53.210;6.504;2022-12-18T06:17:30;-6.30;99.90
52058;DHT22;38063;53.210;6.504;2022-12-18T06:19:56;-6.30;99.90
52058;DHT22;38063;53.210;6.504;2022-12-18T06:22:22;-6.30;99.90
52058;DHT22;38063;53.210;6.504;2022-12-18T06:24:48;-6.30;99.90
52058;DHT22;38063;53.210;6.504;2022-12-18T06:27:14;-6.30;99.90
52058;DHT22;38063;53.210;6.504;2022-12-18T06:29:39;-6.30;99.90
52058;DHT22;38063;53.210;6.504;2022-12-18T06:32:05;-6.30;99.90
52058;DHT22;38063;53.210;6.504;2022-12-18T06:34:31;-6.30;99.90
52058;DHT22;38063;53.210;6.504;2022-12-18T06:36:56;-6.30;99.90
52058;DHT22;38063;53.210;6.504;2022-12-18T06:39:22;-6.30;99.90
52058;DHT22;38063;53.210;6.504;2022-12-18T06:41:47;-4.60;99.90
52058;DHT22;38063;53.210;6.504;2022-12-18T06:44:13;-6.30;99.90
52058;DHT22;38063;53.210;6.504;2022-12-18T06:46:39;-6.30;99.90
52058;DHT22;38063;53.210;6.504;2022-12-18T06:49:04;-6.30;99.90
52058;DHT22;38063;53.210;6.504;2022-12-18T06:51:30;-6.30;99.90
52058;DHT22;38063;53.210;6.504;2022-12-18T06:53:55;-6.30;99.90
52058;DHT22;38063;53.210;6.504;2022-12-18T06:56:21;-6.30;99.90
52058;DHT22;38063;53.210;6.504;2022-12-18T06:58:47;-6.30;99.90
52058;DHT22;38063;53.210;6.504;2022-12-18T07:01:13;-6.30;99.90
52058;DHT22;38063;53.210;6.504;2022-12-18T07:03:40;-6.30;99.90
52058;DHT22;38063;53.210;6.504;2022-12-18T07:06:06;-6.30;99.90
52058;DHT22;38063;53.210;6.504;2022-12-18T07:08:36;-6.30;99.90
52058;DHT22;38063;53.210;6.504;2022-12-18T07:11:03;-6.30;99.90
52058;DHT22;38063;53.210;6.504;2022-12-18T07:13:29;-6.30;99.90
52058;DHT22;38063;53.210;6.504;2022-12-18T07:15:55;-6.20;99.90
52058;DHT22;38063;53.210;6.504;2022-12-18T07:18:20;-6.30;99.90
52058;DHT22;38063;53.210;6.504;2022-12-18T07:20:46;-6.30;99.90
52058;DHT22;38063;53.210;6.504;2022-12-18T07:23:11;-6.30;99.90
52058;DHT22;38063;53.210;6.504;2022-12-18T07:25:38;-6.30;99.90
52058;DHT22;38063;53.210;6.504;2022-12-18T07:28:04;-6.30;99.90
52058;DHT22;38063;53.210;6.504;2022-12-18T07:30:30;-6.00;99.90
52058;DHT22;38063;53.210;6.504;2022-12-18T07:32:55;-6.20;99.90
52058;DHT22;38063;53.210;6.504;2022-12-18T07:35:21;-6.20;99.90
52058;DHT22;38063;53.210;6.504;2022-12-18T07:37:47;-6.30;99.90
52058;DHT22;38063;53.210;6.504;2022-12-18T07:40:12;-6.20;99.90
52058;DHT22;38063;53.210;6.504;2022-12-18T07:42:38;-5.50;99.90
52058;DHT22;38063;53.210;6.504;2022-12-18T07:45:04;-6.20;99.90
52058;DHT22;38063;53.210;6.504;2022-12-18T07:47:30;-6.10;99.90
52058;DHT22;38063;53.210;6.504;2022-12-18T07:49:56;-6.20;99.90
52058;DHT22;38063;53.210;6.504;2022-12-18T07:52:21;-6.20;99.90
52058;DHT22;38063;53.210;6.504;2022-12-18T07:54:47;-5.30;99.90
52058;DHT22;38063;53.210;6.504;2022-12-18T07:57:16;-6.20;99.90
52058;DHT22;38063;53.210;6.504;2022-12-18T07:59:42;-6.20;99.90
52058;DHT22;38063;53.210;6.504;2022-12-18T08:02:08;-6.10;99.90
52058;DHT22;38063;53.210;6.504;2022-12-18T08:04:34;-6.10;99.90
52058;DHT22;38063;53.210;6.504;2022-12-18T08:07:00;-6.10;99.90
52058;DHT22;38063;53.210;6.504;2022-12-18T08:09:25;-6.10;99.90
52058;DHT22;38063;53.210;6.504;2022-12-18T08:11:51;-6.20;99.90
52058;DHT22;38063;53.210;6.504;2022-12-18T08:14:17;-6.00;99.90
52058;DHT22;38063;53.210;6.504;2022-12-18T08:16:42;-6.00;99.90
52058;DHT22;38063;53.210;6.504;2022-12-18T08:19:08;-6.00;99.90
52058;DHT22;38063;53.210;6.504;2022-12-18T08:21:33;-5.90;99.90
52058;DHT22;38063;53.210;6.504;2022-12-18T08:24:00;-5.90;99.90
52058;DHT22;38063;53.210;6.504;2022-12-18T08:26:28;-5.90;99.90
52058;DHT22;38063;53.210;6.504;2022-12-18T08:28:56;-5.80;99.90
52058;DHT22;38063;53.210;6.504;2022-12-18T08:31:22;-5.90;99.90
52058;DHT22;38063;53.210;6.504;2022-12-18T08:33:49;-5.90;99.90
52058;DHT22;38063;53.210;6.504;2022-12-18T08:36:15;-5.70;99.90
52058;DHT22;38063;53.210;6.504;2022-12-18T08:38:41;-5.80;99.90
52058;DHT22;38063;53.210;6.504;2022-12-18T08:41:09;-5.70;99.90
52058;DHT22;38063;53.210;6.504;2022-12-18T08:43:35;-5.60;99.90
52058;DHT22;38063;53.210;6.504;2022-12-18T08:46:20;-5.60;99.90
52058;DHT22;38063;53.210;6.504;2022-12-18T08:48:47;-5.50;99.90
52058;DHT22;38063;53.210;6.504;2022-12-18T08:51:15;-5.50;99.90
52058;DHT22;38063;53.210;6.504;2022-12-18T08:53:41;-5.50;99.90
52058;DHT22;38063;53.210;6.504;2022-12-18T08:56:07;-5.40;99.90
52058;DHT22;38063;53.210;6.504;2022-12-18T08:58:33;-5.30;99.90
52058;DHT22;38063;53.210;6.504;2022-12-18T09:01:07;-5.30;99.90
52058;DHT22;38063;53.210;6.504;2022-12-18T09:03:34;-5.30;99.90
52058;DHT22;38063;53.210;6.504;2022-12-18T09:06:00;-5.30;99.90
52058;DHT22;38063;53.210;6.504;2022-12-18T09:08:26;-5.20;99.90
52058;DHT22;38063;53.210;6.504;2022-12-18T09:10:52;-5.20;99.90
52058;DHT22;38063;53.210;6.504;2022-12-18T09:13:18;-3.00;99.90
52058;DHT22;38063;53.210;6.504;2022-12-18T09:15:49;-5.10;99.90
52058;DHT22;38063;53.210;6.504;2022-12-18T09:18:16;-5.10;99.90
52058;DHT22;38063;53.210;6.504;2022-12-18T09:20:42;-4.30;99.90
52058;DHT22;38063;53.210;6.504;2022-12-18T09:23:08;-5.00;99.90
52058;DHT22;38063;53.210;6.504;2022-12-18T09:25:34;-4.90;99.90
52058;DHT22;38063;53.210;6.504;2022-12-18T09:28:06;-4.90;99.90
52058;DHT22;38063;53.210;6.504;2022-12-18T09:30:32;-4.80;99.90
52058;DHT22;38063;53.210;6.504;2022-12-18T09:32:59;-4.80;99.90
52058;DHT22;38063;53.210;6.504;2022-12-18T09:35:25;-4.80;99.90
52058;DHT22;38063;53.210;6.504;2022-12-18T09:37:53;-4.70;99.90
52058;DHT22;38063;53.210;6.504;2022-12-18T09:40:21;-4.60;99.90
52058;DHT22;38063;53.210;6.504;2022-12-18T09:42:54;-4.60;99.90
52058;DHT22;38063;53.210;6.504;2022-12-18T09:45:21;-4.70;99.90
52058;DHT22;38063;53.210;6.504;2022-12-18T09:47:48;-4.50;99.90
52058;DHT22;38063;53.210;6.504;2022-12-18T09:50:29;-4.40;99.90
52058;DHT22;38063;53.210;6.504;2022-12-18T09:52:59;-4.40;99.90
52058;DHT22;38063;53.210;6.504;2022-12-18T09:55:32;-4.40;99.90
52058;DHT22;38063;53.210;6.504;2022-12-18T10:00:43;-4.30;99.90
52058;DHT22;38063;53.210;6.504;2022-12-18T10:03:11;-4.30;99.90
52058;DHT22;38063;53.210;6.504;2022-12-18T10:08:17;-4.30;99.90
52058;DHT22;38063;53.210;6.504;2022-12-18T10:10:52;-4.30;99.90
52058;DHT22;38063;53.210;6.504;2022-12-18T10:13:42;-4.30;99.90
52058;DHT22;38063;53.210;6.504;2022-12-18T10:16:19;-4.30;99.90
52058;DHT22;38063;53.210;6.504;2022-12-18T10:24:53;-4.20;99.90
52058;DHT22;38063;53.210;6.504;2022-12-18T10:27:23;-4.20;99.90
52058;DHT22;38063;53.210;6.504;2022-12-18T10:29:50;-4.20;99.90
52058;DHT22;38063;53.210;6.504;2022-12-18T10:32:24;-4.20;99.90
52058;DHT22;38063;53.210;6.504;2022-12-18T10:34:52;-4.20;99.90
52058;DHT22;38063;53.210;6.504;2022-12-18T10:37:20;-4.10;99.90
52058;DHT22;38063;53.210;6.504;2022-12-18T10:40:07;-4.10;99.90
52058;DHT22;38063;53.210;6.504;2022-12-18T10:42:33;-4.10;99.90
52058;DHT22;38063;53.210;6.504;2022-12-18T10:45:07;-4.00;99.90
52058;DHT22;38063;53.210;6.504;2022-12-18T10:47:34;-4.00;99.90
52058;DHT22;38063;53.210;6.504;2022-12-18T10:50:01;-4.00;99.90
52058;DHT22;38063;53.210;6.504;2022-12-18T10:52:27;-3.90;99.90
52058;DHT22;38063;53.210;6.504;2022-12-18T10:54:59;-3.90;99.90
52058;DHT22;38063;53.210;6.504;2022-12-18T10:57:33;-3.90;99.90
52058;DHT22;38063;53.210;6.504;2022-12-18T11:00:25;-3.80;99.90
52058;DHT22;38063;53.210;6.504;2022-12-18T11:02:51;-3.80;99.90
52058;DHT22;38063;53.210;6.504;2022-12-18T11:05:31;-3.80;99.90
52058;DHT22;38063;53.210;6.504;2022-12-18T11:07:58;-3.70;99.90
52058;DHT22;38063;53.210;6.504;2022-12-18T11:10:32;-4.30;99.90
52058;DHT22;38063;53.210;6.504;2022-12-18T11:13:20;-3.60;99.90
52058;DHT22;38063;53.210;6.504;2022-12-18T11:15:46;-3.50;99.90
52058;DHT22;38063;53.210;6.504;2022-12-18T11:18:33;-3.50;99.90
52058;DHT22;38063;53.210;6.504;2022-12-18T11:21:07;-3.40;99.90
52058;DHT22;38063;53.210;6.504;2022-12-18T11:23:34;-3.30;99.90
52058;DHT22;38063;53.210;6.504;2022-12-18T11:26:04;-3.30;99.90
52058;DHT22;38063;53.210;6.504;2022-12-18T11:28:38;-3.20;99.90
52058;DHT22;38063;53.210;6.504;2022-12-18T11:31:27;-3.20;99.90
52058;DHT22;38063;53.210;6.504;2022-12-18T11:34:07;-3.10;99.90
52058;DHT22;38063;53.210;6.504;2022-12-18T11:36:53;-3.10;99.90
52058;DHT22;38063;53.210;6.504;2022-12-18T11:42:20;-3.00;99.90
52058;DHT22;38063;53.210;6.504;2022-12-18T11:47:59;-2.90;99.90
52058;DHT22;38063;53.210;6.504;2022-12-18T11:50:53;-2.90;99.90
52058;DHT22;38063;53.210;6.504;2022-12-18T11:53:17;-2.90;99.90
52058;DHT22;38063;53.210;6.504;2022-12-18T12:01:48;-2.70;99.90
52058;DHT22;38063;53.210;6.504;2022-12-18T12:04:40;-2.70;99.90
52058;DHT22;38063;53.210;6.504;2022-12-18T12:26:51;-2.40;99.90
52058;DHT22;38063;53.210;6.504;2022-12-18T12:32:58;-2.30;99.90
52058;DHT22;38063;53.210;6.504;2022-12-18T12:35:39;-2.30;99.90
52058;DHT22;38063;53.210;6.504;2022-12-18T12:38:09;-2.30;99.90
52058;DHT22;38063;53.210;6.504;2022-12-18T12:40:54;-2.20;99.90
52058;DHT22;38063;53.210;6.504;2022-12-18T12:43:31;-2.20;99.90
52058;DHT22;38063;53.210;6.504;2022-12-18T12:48:46;-2.10;99.90
52058;DHT22;38063;53.210;6.504;2022-12-18T12:51:28;-2.10;99.90
52058;DHT22;38063;53.210;6.504;2022-12-18T12:53:57;-2.10;99.90
52058;DHT22;38063;53.210;6.504;2022-12-18T12:59:21;-2.00;99.90
52058;DHT22;38063;53.210;6.504;2022-12-18T13:04:41;-2.00;99.90
52058;DHT22;38063;53.210;6.504;2022-12-18T13:07:39;-1.90;99.90
52058;DHT22;38063;53.210;6.504;2022-12-18T13:25:46;-1.70;99.90
52058;DHT22;38063;53.210;6.504;2022-12-18T13:28:16;-1.70;99.90
52058;DHT22;38063;53.210;6.504;2022-12-18T13:30:46;-1.70;99.90
52058;DHT22;38063;53.210;6.504;2022-12-18T13:38:35;-1.70;99.90
52058;DHT22;38063;53.210;6.504;2022-12-18T13:41:20;-1.70;99.90
52058;DHT22;38063;53.210;6.504;2022-12-18T13:43:48;-1.70;99.90
52058;DHT22;38063;53.210;6.504;2022-12-18T13:46:29;-1.70;99.90
52058;DHT22;38063;53.210;6.504;2022-12-18T13:51:32;-1.70;99.90
52058;DHT22;38063;53.210;6.504;2022-12-18T13:54:01;-1.70;99.90
52058;DHT22;38063;53.210;6.504;2022-12-18T13:56:31;-1.70;99.90
52058;DHT22;38063;53.210;6.504;2022-12-18T13:59:13;-1.70;99.90
52058;DHT22;38063;53.210;6.504;2022-12-18T14:01:50;-1.70;99.90
52058;DHT22;38063;53.210;6.504;2022-12-18T14:06:50;-1.70;99.90
52058;DHT22;38063;53.210;6.504;2022-12-18T14:09:21;-1.70;99.90
52058;DHT22;38063;53.210;6.504;2022-12-18T14:11:50;-1.70;99.90
52058;DHT22;38063;53.210;6.504;2022-12-18T14:14:17;-1.70;99.90
52058;DHT22;38063;53.210;6.504;2022-12-18T14:16:44;-1.70;99.90
52058;DHT22;38063;53.210;6.504;2022-12-18T14:19:16;-1.70;99.90
52058;DHT22;38063;53.210;6.504;2022-12-18T14:21:47;-0.60;99.90
52058;DHT22;38063;53.210;6.504;2022-12-18T14:24:15;-1.70;99.90
52058;DHT22;38063;53.210;6.504;2022-12-18T14:26:42;-1.70;99.90
52058;DHT22;38063;53.210;6.504;2022-12-18T14:29:27;-1.80;99.90
52058;DHT22;38063;53.210;6.504;2022-12-18T14:32:14;-1.80;99.90
52058;DHT22;38063;53.210;6.504;2022-12-18T14:34:47;-1.80;99.90
52058;DHT22;38063;53.210;6.504;2022-12-18T14:37:15;-1.80;99.90
52058;DHT22;38063;53.210;6.504;2022-12-18T14:39:51;-1.80;99.90
52058;DHT22;38063;53.210;6.504;2022-12-18T14:42:17;-1.80;99.90
52058;DHT22;38063;53.210;6.504;2022-12-18T14:44:43;-1.80;99.90
52058;DHT22;38063;53.210;6.504;2022-12-18T14:47:15;-1.80;99.90
52058;DHT22;38063;53.210;6.504;2022-12-18T14:49:43;-1.80;99.90
52058;DHT22;38063;53.210;6.504;2022-12-18T14:52:29;-1.80;99.90
52058;DHT22;38063;53.210;6.504;2022-12-18T14:54:56;-1.80;99.90
52058;DHT22;38063;53.210;6.504;2022-12-18T14:57:24;-1.80;99.90
52058;DHT22;38063;53.210;6.504;2022-12-18T14:59:52;-1.90;99.90
52058;DHT22;38063;53.210;6.504;2022-12-18T15:02:21;-1.90;99.90
52058;DHT22;38063;53.210;6.504;2022-12-18T15:04:48;-1.90;99.90
52058;DHT22;38063;53.210;6.504;2022-12-18T15:07:24;-1.90;99.90
52058;DHT22;38063;53.210;6.504;2022-12-18T15:10:16;-1.30;99.90
52058;DHT22;38063;53.210;6.504;2022-12-18T15:12:44;-1.90;99.90
52058;DHT22;38063;53.210;6.504;2022-12-18T15:15:46;-1.90;99.90
52058;DHT22;38063;53.210;6.504;2022-12-18T15:18:17;-1.90;99.90
52058;DHT22;38063;53.210;6.504;2022-12-18T15:20:48;-2.10;99.90
52058;DHT22;38063;53.210;6.504;2022-12-18T15:26:12;-2.00;99.90
52058;DHT22;38063;53.210;6.504;2022-12-18T15:28:46;-2.00;99.90
52058;DHT22;38063;53.210;6.504;2022-12-18T15:33:43;-2.10;99.90
52058;DHT22;38063;53.210;6.504;2022-12-18T15:36:16;-2.10;99.90
52058;DHT22;38063;53.210;6.504;2022-12-18T15:38:46;-2.10;99.90
52058;DHT22;38063;53.210;6.504;2022-12-18T15:41:19;-2.10;99.90
52058;DHT22;38063;53.210;6.504;2022-12-18T15:43:48;-2.10;99.90
52058;DHT22;38063;53.210;6.504;2022-12-18T15:46:16;-2.20;99.90
52058;DHT22;38063;53.210;6.504;2022-12-18T15:48:47;-2.20;99.90
52058;DHT22;38063;53.210;6.504;2022-12-18T15:51:23;-2.10;99.90
52058;DHT22;38063;53.210;6.504;2022-12-18T15:53:50;-2.10;99.90
52058;DHT22;38063;53.210;6.504;2022-12-18T15:56:16;-2.20;99.90
52058;DHT22;38063;53.210;6.504;2022-12-18T15:59:01;-2.20;99.90
52058;DHT22;38063;53.210;6.504;2022-12-18T16:01:29;-2.20;99.90
52058;DHT22;38063;53.210;6.504;2022-12-18T16:03:55;-2.20;99.90
52058;DHT22;38063;53.210;6.504;2022-12-18T16:06:22;-2.20;99.90
52058;DHT22;38063;53.210;6.504;2022-12-18T16:08:48;-2.20;99.90
52058;DHT22;38063;53.210;6.504;2022-12-18T16:11:34;-2.20;99.90
52058;DHT22;38063;53.210;6.504;2022-12-18T16:14:28;-2.20;99.90
52058;DHT22;38063;53.210;6.504;2022-12-18T16:16:58;-2.20;99.90
52058;DHT22;38063;53.210;6.504;2022-12-18T16:19:25;-2.20;99.90
52058;DHT22;38063;53.210;6.504;2022-12-18T16:21:53;-2.20;99.90
52058;DHT22;38063;53.210;6.504;2022-12-18T16:24:22;-2.30;99.90
52058;DHT22;38063;53.210;6.504;2022-12-18T16:26:49;-2.20;99.90
52058;DHT22;38063;53.210;6.504;2022-12-18T16:29:17;-2.20;99.90
52058;DHT22;38063;53.210;6.504;2022-12-18T16:31:43;-2.20;99.90
52058;DHT22;38063;53.210;6.504;2022-12-18T16:36:50;-2.20;99.90
52058;DHT22;38063;53.210;6.504;2022-12-18T16:39:16;-2.20;99.90
52058;DHT22;38063;53.210;6.504;2022-12-18T16:41:42;-2.30;99.90
52058;DHT22;38063;53.210;6.504;2022-12-18T16:44:07;-2.30;99.90
52058;DHT22;38063;53.210;6.504;2022-12-18T16:46:33;-2.30;99.90
52058;DHT22;38063;53.210;6.504;2022-12-18T16:48:59;-2.20;99.90
52058;DHT22;38063;53.210;6.504;2022-12-18T16:51:28;-2.20;99.90
52058;DHT22;38063;53.210;6.504;2022-12-18T16:53:54;-2.20;99.90
52058;DHT22;38063;53.210;6.504;2022-12-18T16:56:20;-2.20;99.90
52058;DHT22;38063;53.210;6.504;2022-12-18T16:58:54;-2.20;99.90
52058;DHT22;38063;53.210;6.504;2022-12-18T17:01:20;-1.20;99.90
52058;DHT22;38063;53.210;6.504;2022-12-18T17:03:53;-2.10;99.90
52058;DHT22;38063;53.210;6.504;2022-12-18T17:06:21;-2.10;99.90
52058;DHT22;38063;53.210;6.504;2022-12-18T17:08:47;-2.20;99.90
52058;DHT22;38063;53.210;6.504;2022-12-18T17:11:14;-2.10;99.90
52058;DHT22;38063;53.210;6.504;2022-12-18T17:13:39;-2.10;99.90
52058;DHT22;38063;53.210;6.504;2022-12-18T17:16:06;-2.10;99.90
52058;DHT22;38063;53.210;6.504;2022-12-18T17:18:32;-2.10;99.90
52058;DHT22;38063;53.210;6.504;2022-12-18T17:21:03;-2.00;99.90
52058;DHT22;38063;53.210;6.504;2022-12-18T17:23:29;-1.90;99.90
52058;DHT22;38063;53.210;6.504;2022-12-18T17:25:58;-2.00;99.90
52058;DHT22;38063;53.210;6.504;2022-12-18T17:28:25;-2.00;99.90
52058;DHT22;38063;53.210;6.504;2022-12-18T17:30:52;-2.00;99.90
52058;DHT22;38063;53.210;6.504;2022-12-18T17:33:18;-2.00;99.90
52058;DHT22;38063;53.210;6.504;2022-12-18T17:35:44;-1.90;99.90